sensor_id;sensor_type;location;lat;lon;timestamp;P1;durP1;ratioP1;P2;durP2;ratioP2
422;SDS011;198;48.752;9.180;2022-12-08T00:01:23;14.07;;;5.10;;
422;SDS011;198;48.752;9.180;2022-12-08T00:03:50;15.80;;;5.10;;
422;SDS011;198;48.752;9.180;2022-12-08T00:09:22;10.73;;;4.90;;
422;SDS011;198;48.752;9.180;2022-12-08T00:11:49;11.13;;;5.50;;
422;SDS011;198;48.752;9.180;2022-12-08T00:14:16;14.20;;;5.93;;
422;SDS011;198;48.752;9.180;2022-12-08T00:16:42;10.80;;;5.10;;
422;SDS011;198;48.752;9.180;2022-12-08T00:19:07;11.53;;;6.30;;
422;SDS011;198;48.752;9.180;2022-12-08T00:21:33;13.53;;;5.83;;
422;SDS011;198;48.752;9.180;2022-12-08T00:23:59;10.50;;;5.40;;
422;SDS011;198;48.752;9.180;2022-12-08T00:26:24;8.70;;;5.47;;
422;SDS011;198;48.752;9.180;2022-12-08T00:28:50;10.10;;;5.00;;
422;SDS011;198;48.752;9.180;2022-12-08T00:31:15;10.00;;;5.07;;
422;SDS011;198;48.752;9.180;2022-12-08T00:33:41;11.83;;;4.90;;
422;SDS011;198;48.752;9.180;2022-12-08T00:36:07;11.93;;;5.00;;
422;SDS011;198;48.752;9.180;2022-12-08T00:38:35;14.97;;;6.17;;
422;SDS011;198;48.752;9.180;2022-12-08T00:41:01;10.93;;;5.13;;
422;SDS011;198;48.752;9.180;2022-12-08T00:43:27;10.43;;;5.30;;
422;SDS011;198;48.752;9.180;2022-12-08T00:45:53;13.97;;;6.07;;
422;SDS011;198;48.752;9.180;2022-12-08T00:48:18;9.10;;;5.13;;
422;SDS011;198;48.752;9.180;2022-12-08T00:50:44;12.63;;;5.97;;
422;SDS011;198;48.752;9.180;2022-12-08T00:53:09;10.03;;;5.03;;
422;SDS011;198;48.752;9.180;2022-12-08T00:55:35;11.20;;;5.80;;
422;SDS011;198;48.752;9.180;2022-12-08T00:58:00;13.80;;;6.03;;
422;SDS011;198;48.752;9.180;2022-12-08T01:00:26;10.90;;;5.13;;
422;SDS011;198;48.752;9.180;2022-12-08T01:02:51;14.10;;;5.57;;
422;SDS011;198;48.752;9.180;2022-12-08T01:05:17;13.50;;;5.80;;
422;SDS011;198;48.752;9.180;2022-12-08T01:07:42;15.33;;;6.40;;
422;SDS011;198;48.752;9.180;2022-12-08T01:10:08;15.67;;;6.40;;
422;SDS011;198;48.752;9.180;2022-12-08T01:12:34;12.40;;;5.60;;
422;SDS011;198;48.752;9.180;2022-12-08T01:14:59;14.77;;;5.43;;
422;SDS011;198;48.752;9.180;2022-12-08T01:17:25;12.60;;;5.60;;
422;SDS011;198;48.752;9.180;2022-12-08T01:19:50;10.77;;;5.47;;
422;SDS011;198;48.752;9.180;2022-12-08T01:22:16;10.43;;;5.00;;
422;SDS011;198;48.752;9.180;2022-12-08T01:24:42;13.03;;;6.17;;
422;SDS011;198;48.752;9.180;2022-12-08T01:27:07;12.13;;;5.43;;
422;SDS011;198;48.752;9.180;2022-12-08T01:29:33;13.47;;;5.93;;
422;SDS011;198;48.752;9.180;2022-12-08T01:31:58;12.33;;;5.83;;
422;SDS011;198;48.752;9.180;2022-12-08T01:34:24;12.30;;;5.90;;
422;SDS011;198;48.752;9.180;2022-12-08T01:36:49;9.67;;;5.33;;
422;SDS011;198;48.752;9.180;2022-12-08T01:39:16;13.13;;;6.03;;
422;SDS011;198;48.752;9.180;2022-12-08T01:41:43;14.37;;;6.50;;
422;SDS011;198;48.752;9.180;2022-12-08T01:46:36;10.60;;;4.87;;
422;SDS011;198;48.752;9.180;2022-12-08T01:49:22;14.27;;;5.90;;
422;SDS011;198;48.752;9.180;2022-12-08T01:54:25;10.93;;;6.07;;
422;SDS011;198;48.752;9.180;2022-12-08T01:59:24;12.43;;;5.60;;
422;SDS011;198;48.752;9.180;2022-12-08T02:01:50;9.47;;;5.57;;
422;SDS011;198;48.752;9.180;2022-12-08T02:04:16;15.13;;;6.03;;
422;SDS011;198;48.752;9.180;2022-12-08T02:06:42;10.83;;;5.23;;
422;SDS011;198;48.752;9.180;2022-12-08T02:09:10;9.77;;;5.70;;
422;SDS011;198;48.752;9.180;2022-12-08T02:11:36;8.37;;;4.80;;
422;SDS011;198;48.752;9.180;2022-12-08T02:14:02;16.17;;;6.90;;
422;SDS011;198;48.752;9.180;2022-12-08T02:19:45;12.60;;;5.80;;
422;SDS011;198;48.752;9.180;2022-12-08T02:41:31;11.40;;;5.60;;
422;SDS011;198;48.752;9.180;2022-12-08T02:44:21;8.77;;;5.10;;
422;SDS011;198;48.752;9.180;2022-12-08T02:46:57;13.80;;;5.50;;
422;SDS011;198;48.752;9.180;2022-12-08T02:49:33;21.57;;;6.07;;
422;SDS011;198;48.752;9.180;2022-12-08T02:52:03;15.50;;;7.00;;
422;SDS011;198;48.752;9.180;2022-12-08T02:54:29;15.20;;;6.73;;
422;SDS011;198;48.752;9.180;2022-12-08T02:59:43;13.03;;;5.50;;
422;SDS011;198;48.752;9.180;2022-12-08T03:02:17;14.33;;;7.00;;
422;SDS011;198;48.752;9.180;2022-12-08T03:05:01;13.50;;;5.97;;
422;SDS011;198;48.752;9.180;2022-12-08T03:07:40;13.33;;;6.00;;
422;SDS011;198;48.752;9.180;2022-12-08T03:10:31;11.93;;;5.93;;
422;SDS011;198;48.752;9.180;2022-12-08T03:13:05;11.97;;;5.30;;
422;SDS011;198;48.752;9.180;2022-12-08T03:15:37;12.53;;;6.40;;
422;SDS011;198;48.752;9.180;2022-12-08T03:18:04;11.97;;;5.60;;
422;SDS011;198;48.752;9.180;2022-12-08T03:20:32;15.67;;;6.70;;
422;SDS011;198;48.752;9.180;2022-12-08T03:22:59;13.20;;;6.30;;
422;SDS011;198;48.752;9.180;2022-12-08T03:25:30;10.67;;;5.53;;
422;SDS011;198;48.752;9.180;2022-12-08T03:27:58;9.87;;;5.50;;
422;SDS011;198;48.752;9.180;2022-12-08T03:30:23;11.63;;;5.03;;
422;SDS011;198;48.752;9.180;2022-12-08T03:32:52;11.20;;;5.03;;
422;SDS011;198;48.752;9.180;2022-12-08T03:35:27;11.27;;;5.20;;
422;SDS011;198;48.752;9.180;2022-12-08T03:38:02;17.60;;;6.57;;
422;SDS011;198;48.752;9.180;2022-12-08T03:40:33;10.33;;;5.20;;
422;SDS011;198;48.752;9.180;2022-12-08T03:42:58;8.80;;;4.93;;
422;SDS011;198;48.752;9.180;2022-12-08T03:45:24;10.87;;;5.40;;
422;SDS011;198;48.752;9.180;2022-12-08T03:47:50;12.43;;;4.90;;
422;SDS011;198;48.752;9.180;2022-12-08T03:50:15;11.63;;;7.17;;
422;SDS011;198;48.752;9.180;2022-12-08T03:52:41;12.70;;;6.00;;
422;SDS011;198;48.752;9.180;2022-12-08T03:55:06;13.93;;;7.50;;
422;SDS011;198;48.752;9.180;2022-12-08T03:57:32;17.80;;;6.80;;
422;SDS011;198;48.752;9.180;2022-12-08T03:59:58;18.00;;;6.57;;
422;SDS011;198;48.752;9.180;2022-12-08T04:02:23;14.70;;;7.30;;
422;SDS011;198;48.752;9.180;2022-12-08T04:04:49;11.13;;;5.27;;
422;SDS011;198;48.752;9.180;2022-12-08T04:07:14;12.90;;;5.80;;
422;SDS011;198;48.752;9.180;2022-12-08T04:09:40;13.07;;;5.73;;
422;SDS011;198;48.752;9.180;2022-12-08T04:12:05;8.77;;;5.03;;
422;SDS011;198;48.752;9.180;2022-12-08T04:14:32;10.50;;;5.10;;
422;SDS011;198;48.752;9.180;2022-12-08T04:16:57;12.33;;;5.87;;
422;SDS011;198;48.752;9.180;2022-12-08T04:19:23;14.20;;;6.50;;
422;SDS011;198;48.752;9.180;2022-12-08T04:21:48;13.90;;;6.07;;
422;SDS011;198;48.752;9.180;2022-12-08T04:24:14;12.17;;;4.90;;
422;SDS011;198;48.752;9.180;2022-12-08T04:26:39;15.60;;;6.57;;
422;SDS011;198;48.752;9.180;2022-12-08T04:29:05;13.30;;;5.47;;
422;SDS011;198;48.752;9.180;2022-12-08T04:31:31;23.30;;;7.73;;
422;SDS011;198;48.752;9.180;2022-12-08T04:33:56;11.83;;;5.27;;
422;SDS011;198;48.752;9.180;2022-12-08T04:36:22;14.97;;;6.70;;
422;SDS011;198;48.752;9.180;2022-12-08T04:38:47;11.43;;;5.90;;
422;SDS011;198;48.752;9.180;2022-12-08T04:41:13;13.53;;;5.63;;
422;SDS011;198;48.752;9.180;2022-12-08T04:43:38;10.80;;;5.60;;
422;SDS011;198;48.752;9.180;2022-12-08T04:46:05;16.30;;;6.50;;
422;SDS011;198;48.752;9.180;2022-12-08T04:48:32;12.10;;;5.63;;
422;SDS011;198;48.752;9.180;2022-12-08T04:50:58;13.73;;;6.33;;
422;SDS011;198;48.752;9.180;2022-12-08T04:53:23;14.13;;;6.10;;
422;SDS011;198;48.752;9.180;2022-12-08T04:55:50;12.87;;;6.10;;
422;SDS011;198;48.752;9.180;2022-12-08T04:58:17;10.63;;;5.27;;
422;SDS011;198;48.752;9.180;2022-12-08T05:00:44;17.93;;;6.73;;
422;SDS011;198;48.752;9.180;2022-12-08T05:03:10;10.50;;;5.30;;
422;SDS011;198;48.752;9.180;2022-12-08T05:05:36;13.03;;;5.73;;
422;SDS011;198;48.752;9.180;2022-12-08T05:08:02;12.30;;;5.50;;
422;SDS011;198;48.752;9.180;2022-12-08T05:10:28;14.93;;;6.40;;
422;SDS011;198;48.752;9.180;2022-12-08T05:12:53;13.53;;;5.57;;
422;SDS011;198;48.752;9.180;2022-12-08T05:15:19;12.60;;;5.00;;
422;SDS011;198;48.752;9.180;2022-12-08T05:17:44;18.70;;;6.10;;
422;SDS011;198;48.752;9.180;2022-12-08T05:20:10;10.90;;;5.10;;
422;SDS011;198;48.752;9.180;2022-12-08T05:22:36;14.63;;;6.17;;
422;SDS011;198;48.752;9.180;2022-12-08T05:25:01;17.90;;;6.57;;
422;SDS011;198;48.752;9.180;2022-12-08T05:27:27;11.50;;;5.77;;
422;SDS011;198;48.752;9.180;2022-12-08T05:29:52;9.00;;;4.73;;
422;SDS011;198;48.752;9.180;2022-12-08T05:32:19;14.50;;;6.07;;
422;SDS011;198;48.752;9.180;2022-12-08T05:34:44;8.40;;;4.60;;
422;SDS011;198;48.752;9.180;2022-12-08T05:37:10;12.83;;;5.47;;
422;SDS011;198;48.752;9.180;2022-12-08T05:39:35;10.87;;;4.77;;
422;SDS011;198;48.752;9.180;2022-12-08T05:42:01;10.80;;;5.47;;
422;SDS011;198;48.752;9.180;2022-12-08T05:44:27;15.90;;;6.63;;
422;SDS011;198;48.752;9.180;2022-12-08T05:46:52;14.17;;;5.60;;
422;SDS011;198;48.752;9.180;2022-12-08T05:49:18;10.30;;;5.13;;
422;SDS011;198;48.752;9.180;2022-12-08T05:51:43;10.37;;;5.40;;
422;SDS011;198;48.752;9.180;2022-12-08T05:54:09;11.27;;;4.90;;
422;SDS011;198;48.752;9.180;2022-12-08T05:56:34;8.13;;;3.93;;
422;SDS011;198;48.752;9.180;2022-12-08T05:59:00;13.23;;;4.70;;
422;SDS011;198;48.752;9.180;2022-12-08T06:01:29;17.33;;;5.60;;
422;SDS011;198;48.752;9.180;2022-12-08T06:03:56;8.20;;;4.10;;
422;SDS011;198;48.752;9.180;2022-12-08T06:06:23;10.07;;;4.53;;
422;SDS011;198;48.752;9.180;2022-12-08T06:08:49;9.00;;;4.47;;
422;SDS011;198;48.752;9.180;2022-12-08T06:13:44;8.73;;;4.67;;
422;SDS011;198;48.752;9.180;2022-12-08T06:16:10;12.53;;;4.87;;
422;SDS011;198;48.752;9.180;2022-12-08T06:18:35;11.67;;;4.80;;
422;SDS011;198;48.752;9.180;2022-12-08T06:21:04;11.10;;;4.50;;
422;SDS011;198;48.752;9.180;2022-12-08T06:23:32;11.00;;;4.73;;
422;SDS011;198;48.752;9.180;2022-12-08T06:26:01;9.93;;;4.43;;
422;SDS011;198;48.752;9.180;2022-12-08T06:28:27;12.00;;;5.90;;
422;SDS011;198;48.752;9.180;2022-12-08T06:30:54;8.43;;;4.37;;
422;SDS011;198;48.752;9.180;2022-12-08T06:33:19;9.80;;;4.17;;
422;SDS011;198;48.752;9.180;2022-12-08T06:35:45;12.33;;;4.40;;
422;SDS011;198;48.752;9.180;2022-12-08T06:38:10;8.30;;;4.43;;
422;SDS011;198;48.752;9.180;2022-12-08T06:40:36;8.93;;;4.50;;
422;SDS011;198;48.752;9.180;2022-12-08T06:43:01;10.87;;;4.40;;
422;SDS011;198;48.752;9.180;2022-12-08T06:45:27;9.00;;;4.47;;
422;SDS011;198;48.752;9.180;2022-12-08T06:47:52;15.50;;;5.47;;
422;SDS011;198;48.752;9.180;2022-12-08T06:50:18;9.20;;;4.73;;
422;SDS011;198;48.752;9.180;2022-12-08T06:52:43;11.67;;;5.53;;
422;SDS011;198;48.752;9.180;2022-12-08T06:55:10;11.23;;;4.00;;
422;SDS011;198;48.752;9.180;2022-12-08T06:57:35;9.33;;;4.43;;
422;SDS011;198;48.752;9.180;2022-12-08T07:00:02;11.77;;;5.03;;
422;SDS011;198;48.752;9.180;2022-12-08T07:02:29;9.93;;;4.93;;
422;SDS011;198;48.752;9.180;2022-12-08T07:04:55;8.57;;;4.50;;
422;SDS011;198;48.752;9.180;2022-12-08T07:07:20;10.03;;;5.20;;
422;SDS011;198;48.752;9.180;2022-12-08T07:09:46;13.00;;;4.37;;
422;SDS011;198;48.752;9.180;2022-12-08T07:12:11;8.73;;;4.57;;
422;SDS011;198;48.752;9.180;2022-12-08T07:14:37;9.13;;;4.67;;
422;SDS011;198;48.752;9.180;2022-12-08T07:17:02;9.67;;;5.43;;
422;SDS011;198;48.752;9.180;2022-12-08T07:19:28;12.40;;;5.20;;
422;SDS011;198;48.752;9.180;2022-12-08T07:21:53;9.83;;;4.20;;
422;SDS011;198;48.752;9.180;2022-12-08T07:24:19;8.77;;;4.47;;
422;SDS011;198;48.752;9.180;2022-12-08T07:26:44;9.30;;;4.83;;
422;SDS011;198;48.752;9.180;2022-12-08T07:29:10;12.00;;;4.80;;
422;SDS011;198;48.752;9.180;2022-12-08T07:31:36;7.70;;;4.40;;
422;SDS011;198;48.752;9.180;2022-12-08T07:34:01;11.97;;;4.93;;
422;SDS011;198;48.752;9.180;2022-12-08T07:36:27;10.37;;;4.40;;
422;SDS011;198;48.752;9.180;2022-12-08T07:38:53;13.87;;;6.50;;
422;SDS011;198;48.752;9.180;2022-12-08T07:41:19;11.23;;;4.50;;
422;SDS011;198;48.752;9.180;2022-12-08T07:43:46;12.87;;;5.30;;
422;SDS011;198;48.752;9.180;2022-12-08T07:46:12;16.10;;;6.27;;
422;SDS011;198;48.752;9.180;2022-12-08T07:48:40;15.10;;;5.40;;
422;SDS011;198;48.752;9.180;2022-12-08T07:51:06;9.10;;;4.43;;
422;SDS011;198;48.752;9.180;2022-12-08T07:53:32;10.33;;;5.07;;
422;SDS011;198;48.752;9.180;2022-12-08T07:55:58;20.27;;;4.90;;
422;SDS011;198;48.752;9.180;2022-12-08T07:58:23;12.20;;;5.03;;
422;SDS011;198;48.752;9.180;2022-12-08T08:00:50;12.70;;;5.57;;
422;SDS011;198;48.752;9.180;2022-12-08T08:03:16;13.73;;;7.73;;
422;SDS011;198;48.752;9.180;2022-12-08T08:05:42;12.80;;;4.83;;
422;SDS011;198;48.752;9.180;2022-12-08T08:08:12;21.40;;;5.43;;
422;SDS011;198;48.752;9.180;2022-12-08T08:10:37;19.30;;;6.07;;
422;SDS011;198;48.752;9.180;2022-12-08T08:13:03;11.60;;;5.50;;
422;SDS011;198;48.752;9.180;2022-12-08T08:15:28;11.57;;;4.97;;
422;SDS011;198;48.752;9.180;2022-12-08T08:17:54;15.10;;;5.17;;
422;SDS011;198;48.752;9.180;2022-12-08T08:20:20;14.03;;;4.83;;
422;SDS011;198;48.752;9.180;2022-12-08T08:22:46;8.00;;;4.40;;
422;SDS011;198;48.752;9.180;2022-12-08T08:25:13;14.03;;;4.43;;
422;SDS011;198;48.752;9.180;2022-12-08T08:27:40;11.73;;;5.10;;
422;SDS011;198;48.752;9.180;2022-12-08T08:30:06;9.60;;;5.00;;
422;SDS011;198;48.752;9.180;2022-12-08T08:32:34;14.23;;;4.63;;
422;SDS011;198;48.752;9.180;2022-12-08T08:35:00;13.93;;;5.03;;
422;SDS011;198;48.752;9.180;2022-12-08T08:37:26;9.30;;;4.03;;
422;SDS011;198;48.752;9.180;2022-12-08T08:39:51;12.23;;;4.50;;
422;SDS011;198;48.752;9.180;2022-12-08T08:42:17;8.03;;;3.90;;
422;SDS011;198;48.752;9.180;2022-12-08T08:44:43;7.83;;;5.20;;
422;SDS011;198;48.752;9.180;2022-12-08T08:47:08;9.07;;;3.43;;
422;SDS011;198;48.752;9.180;2022-12-08T08:49:34;8.30;;;4.37;;
422;SDS011;198;48.752;9.180;2022-12-08T08:52:00;8.37;;;4.17;;
422;SDS011;198;48.752;9.180;2022-12-08T08:54:27;11.40;;;4.60;;
422;SDS011;198;48.752;9.180;2022-12-08T08:56:53;11.60;;;5.00;;
422;SDS011;198;48.752;9.180;2022-12-08T08:59:20;10.93;;;4.00;;
422;SDS011;198;48.752;9.180;2022-12-08T09:01:46;12.60;;;4.37;;
422;SDS011;198;48.752;9.180;2022-12-08T09:04:11;10.93;;;5.67;;
422;SDS011;198;48.752;9.180;2022-12-08T09:06:36;6.43;;;3.93;;
422;SDS011;198;48.752;9.180;2022-12-08T09:09:02;12.53;;;4.30;;
422;SDS011;198;48.752;9.180;2022-12-08T09:11:28;14.13;;;4.93;;
422;SDS011;198;48.752;9.180;2022-12-08T09:13:54;9.10;;;4.67;;
422;SDS011;198;48.752;9.180;2022-12-08T09:16:20;9.67;;;4.73;;
422;SDS011;198;48.752;9.180;2022-12-08T09:18:45;6.77;;;4.00;;
422;SDS011;198;48.752;9.180;2022-12-08T09:21:13;7.20;;;3.53;;
422;SDS011;198;48.752;9.180;2022-12-08T09:23:44;6.87;;;3.80;;
422;SDS011;198;48.752;9.180;2022-12-08T09:26:09;14.90;;;4.90;;
422;SDS011;198;48.752;9.180;2022-12-08T09:28:35;8.63;;;4.10;;
422;SDS011;198;48.752;9.180;2022-12-08T09:31:01;9.17;;;4.40;;
422;SDS011;198;48.752;9.180;2022-12-08T09:33:27;8.27;;;4.27;;
422;SDS011;198;48.752;9.180;2022-12-08T09:35:53;9.60;;;4.90;;
422;SDS011;198;48.752;9.180;2022-12-08T09:38:18;8.30;;;4.67;;
422;SDS011;198;48.752;9.180;2022-12-08T09:40:51;5.90;;;3.50;;
422;SDS011;198;48.752;9.180;2022-12-08T09:45:43;8.17;;;3.87;;
422;SDS011;198;48.752;9.180;2022-12-08T09:48:10;8.70;;;4.60;;
422;SDS011;198;48.752;9.180;2022-12-08T09:50:43;6.60;;;4.13;;
422;SDS011;198;48.752;9.180;2022-12-08T09:53:17;5.90;;;4.10;;
422;SDS011;198;48.752;9.180;2022-12-08T09:55:50;9.80;;;4.37;;
422;SDS011;198;48.752;9.180;2022-12-08T10:01:25;8.87;;;4.57;;
422;SDS011;198;48.752;9.180;2022-12-08T10:03:53;6.03;;;4.13;;
422;SDS011;198;48.752;9.180;2022-12-08T10:06:33;7.93;;;4.00;;
422;SDS011;198;48.752;9.180;2022-12-08T10:12:06;8.20;;;3.50;;
422;SDS011;198;48.752;9.180;2022-12-08T10:17:40;7.50;;;3.93;;
422;SDS011;198;48.752;9.180;2022-12-08T10:20:11;7.40;;;3.90;;
422;SDS011;198;48.752;9.180;2022-12-08T10:22:42;8.33;;;4.50;;
422;SDS011;198;48.752;9.180;2022-12-08T10:27:35;10.50;;;4.20;;
422;SDS011;198;48.752;9.180;2022-12-08T10:30:02;12.30;;;4.43;;
422;SDS011;198;48.752;9.180;2022-12-08T10:32:37;9.27;;;4.43;;
422;SDS011;198;48.752;9.180;2022-12-08T10:35:08;10.17;;;4.00;;
422;SDS011;198;48.752;9.180;2022-12-08T10:37:36;13.70;;;3.93;;
422;SDS011;198;48.752;9.180;2022-12-08T10:40:09;11.43;;;3.90;;
422;SDS011;198;48.752;9.180;2022-12-08T10:42:41;6.73;;;3.37;;
422;SDS011;198;48.752;9.180;2022-12-08T10:45:14;4.57;;;2.83;;
422;SDS011;198;48.752;9.180;2022-12-08T10:48:04;5.80;;;3.30;;
422;SDS011;198;48.752;9.180;2022-12-08T10:50:42;8.50;;;4.07;;
422;SDS011;198;48.752;9.180;2022-12-08T10:53:21;5.07;;;3.30;;
422;SDS011;198;48.752;9.180;2022-12-08T10:55:50;7.40;;;4.20;;
422;SDS011;198;48.752;9.180;2022-12-08T11:01:09;5.33;;;2.77;;
422;SDS011;198;48.752;9.180;2022-12-08T11:03:49;19.63;;;4.47;;
422;SDS011;198;48.752;9.180;2022-12-08T11:09:03;4.83;;;2.80;;
422;SDS011;198;48.752;9.180;2022-12-08T11:11:38;6.97;;;4.27;;
422;SDS011;198;48.752;9.180;2022-12-08T11:17:01;7.40;;;3.70;;
422;SDS011;198;48.752;9.180;2022-12-08T11:19:36;6.00;;;3.13;;
422;SDS011;198;48.752;9.180;2022-12-08T11:22:19;4.90;;;3.33;;
422;SDS011;198;48.752;9.180;2022-12-08T11:24:57;8.67;;;3.63;;
422;SDS011;198;48.752;9.180;2022-12-08T11:27:23;10.90;;;3.47;;
422;SDS011;198;48.752;9.180;2022-12-08T11:29:49;13.10;;;3.80;;
422;SDS011;198;48.752;9.180;2022-12-08T11:32:15;6.90;;;2.97;;
422;SDS011;198;48.752;9.180;2022-12-08T11:37:43;8.37;;;3.53;;
422;SDS011;198;48.752;9.180;2022-12-08T11:40:13;7.23;;;3.53;;
422;SDS011;198;48.752;9.180;2022-12-08T11:45:34;7.97;;;3.30;;
422;SDS011;198;48.752;9.180;2022-12-08T11:48:02;5.87;;;2.83;;
422;SDS011;198;48.752;9.180;2022-12-08T11:53:05;8.07;;;4.10;;
422;SDS011;198;48.752;9.180;2022-12-08T11:55:40;5.90;;;3.10;;
422;SDS011;198;48.752;9.180;2022-12-08T11:58:14;7.33;;;3.77;;
422;SDS011;198;48.752;9.180;2022-12-08T12:00:42;7.33;;;3.93;;
422;SDS011;198;48.752;9.180;2022-12-08T12:03:11;6.23;;;3.77;;
422;SDS011;198;48.752;9.180;2022-12-08T12:06:07;5.40;;;3.50;;
422;SDS011;198;48.752;9.180;2022-12-08T12:09:15;4.50;;;3.53;;
422;SDS011;198;48.752;9.180;2022-12-08T12:14:40;5.20;;;3.33;;
422;SDS011;198;48.752;9.180;2022-12-08T12:23:07;5.57;;;3.43;;
422;SDS011;198;48.752;9.180;2022-12-08T12:25:53;5.90;;;3.23;;
422;SDS011;198;48.752;9.180;2022-12-08T12:28:24;3.00;;;2.53;;
422;SDS011;198;48.752;9.180;2022-12-08T12:31:10;5.27;;;3.10;;
422;SDS011;198;48.752;9.180;2022-12-08T12:33:39;4.67;;;2.70;;
422;SDS011;198;48.752;9.180;2022-12-08T12:36:07;3.53;;;2.63;;
422;SDS011;198;48.752;9.180;2022-12-08T12:38:35;6.23;;;2.30;;
422;SDS011;198;48.752;9.180;2022-12-08T12:41:25;6.73;;;3.20;;
422;SDS011;198;48.752;9.180;2022-12-08T12:46:39;5.70;;;3.20;;
422;SDS011;198;48.752;9.180;2022-12-08T12:52:02;6.87;;;3.20;;
422;SDS011;198;48.752;9.180;2022-12-08T12:54:28;6.57;;;3.47;;
422;SDS011;198;48.752;9.180;2022-12-08T12:56:55;3.80;;;2.20;;
422;SDS011;198;48.752;9.180;2022-12-08T13:02:25;3.80;;;2.67;;
422;SDS011;198;48.752;9.180;2022-12-08T13:04:56;6.27;;;2.70;;
422;SDS011;198;48.752;9.180;2022-12-08T13:07:32;7.87;;;3.07;;
422;SDS011;198;48.752;9.180;2022-12-08T13:10:15;6.70;;;3.60;;
422;SDS011;198;48.752;9.180;2022-12-08T13:18:42;4.27;;;2.33;;
422;SDS011;198;48.752;9.180;2022-12-08T13:21:13;6.20;;;3.13;;
422;SDS011;198;48.752;9.180;2022-12-08T13:23:45;5.43;;;3.10;;
422;SDS011;198;48.752;9.180;2022-12-08T13:31:34;6.53;;;3.40;;
422;SDS011;198;48.752;9.180;2022-12-08T13:34:04;4.13;;;2.87;;
422;SDS011;198;48.752;9.180;2022-12-08T13:42:20;4.53;;;2.60;;
422;SDS011;198;48.752;9.180;2022-12-08T13:45:00;9.83;;;3.53;;
422;SDS011;198;48.752;9.180;2022-12-08T13:47:39;8.67;;;3.90;;
422;SDS011;198;48.752;9.180;2022-12-08T13:50:21;7.73;;;2.70;;
422;SDS011;198;48.752;9.180;2022-12-08T13:58:06;5.73;;;3.37;;
422;SDS011;198;48.752;9.180;2022-12-08T14:00:41;5.53;;;2.70;;
422;SDS011;198;48.752;9.180;2022-12-08T14:03:07;7.10;;;3.60;;
422;SDS011;198;48.752;9.180;2022-12-08T14:05:39;7.13;;;3.40;;
422;SDS011;198;48.752;9.180;2022-12-08T14:08:08;5.30;;;3.10;;
422;SDS011;198;48.752;9.180;2022-12-08T14:10:46;5.67;;;3.20;;
422;SDS011;198;48.752;9.180;2022-12-08T14:13:17;8.40;;;3.60;;
422;SDS011;198;48.752;9.180;2022-12-08T14:15:43;6.70;;;3.00;;
422;SDS011;198;48.752;9.180;2022-12-08T14:18:22;4.27;;;3.10;;
422;SDS011;198;48.752;9.180;2022-12-08T14:21:03;5.60;;;2.60;;
422;SDS011;198;48.752;9.180;2022-12-08T14:23:34;6.93;;;2.97;;
422;SDS011;198;48.752;9.180;2022-12-08T14:26:00;6.73;;;3.40;;
422;SDS011;198;48.752;9.180;2022-12-08T14:28:29;2.80;;;2.47;;
422;SDS011;198;48.752;9.180;2022-12-08T14:30:55;7.30;;;2.67;;
422;SDS011;198;48.752;9.180;2022-12-08T14:33:21;5.97;;;3.07;;
422;SDS011;198;48.752;9.180;2022-12-08T14:35:51;6.67;;;2.97;;
422;SDS011;198;48.752;9.180;2022-12-08T14:38:19;6.17;;;2.43;;
422;SDS011;198;48.752;9.180;2022-12-08T14:40:47;6.23;;;3.07;;
422;SDS011;198;48.752;9.180;2022-12-08T14:43:25;6.10;;;2.77;;
422;SDS011;198;48.752;9.180;2022-12-08T14:45:52;10.47;;;3.40;;
422;SDS011;198;48.752;9.180;2022-12-08T14:53:55;10.80;;;4.37;;
422;SDS011;198;48.752;9.180;2022-12-08T14:56:40;6.60;;;3.40;;
422;SDS011;198;48.752;9.180;2022-12-08T14:59:27;10.23;;;3.40;;
422;SDS011;198;48.752;9.180;2022-12-08T15:04:39;10.23;;;4.17;;
422;SDS011;198;48.752;9.180;2022-12-08T15:07:17;8.20;;;3.30;;
422;SDS011;198;48.752;9.180;2022-12-08T15:09:47;5.90;;;3.07;;
422;SDS011;198;48.752;9.180;2022-12-08T15:12:29;5.63;;;3.23;;
422;SDS011;198;48.752;9.180;2022-12-08T15:14:58;8.00;;;3.30;;
422;SDS011;198;48.752;9.180;2022-12-08T15:20:05;7.50;;;3.47;;
422;SDS011;198;48.752;9.180;2022-12-08T15:22:48;9.37;;;3.47;;
422;SDS011;198;48.752;9.180;2022-12-08T15:25:14;4.63;;;3.37;;
422;SDS011;198;48.752;9.180;2022-12-08T15:27:39;6.10;;;3.17;;
422;SDS011;198;48.752;9.180;2022-12-08T15:30:05;7.80;;;3.33;;
422;SDS011;198;48.752;9.180;2022-12-08T15:32:37;10.80;;;4.50;;
422;SDS011;198;48.752;9.180;2022-12-08T15:35:03;6.50;;;3.73;;
422;SDS011;198;48.752;9.180;2022-12-08T15:37:28;10.10;;;3.93;;
422;SDS011;198;48.752;9.180;2022-12-08T15:39:54;8.60;;;3.50;;
422;SDS011;198;48.752;9.180;2022-12-08T15:42:19;7.93;;;4.47;;
422;SDS011;198;48.752;9.180;2022-12-08T15:44:45;8.67;;;4.30;;
422;SDS011;198;48.752;9.180;2022-12-08T15:47:18;7.60;;;3.87;;
422;SDS011;198;48.752;9.180;2022-12-08T15:49:45;6.23;;;3.60;;
422;SDS011;198;48.752;9.180;2022-12-08T15:52:12;7.37;;;3.30;;
422;SDS011;198;48.752;9.180;2022-12-08T15:54:40;6.00;;;3.33;;
422;SDS011;198;48.752;9.180;2022-12-08T15:57:06;8.37;;;3.53;;
422;SDS011;198;48.752;9.180;2022-12-08T15:59:41;9.50;;;3.67;;
422;SDS011;198;48.752;9.180;2022-12-08T16:02:08;9.60;;;4.33;;
422;SDS011;198;48.752;9.180;2022-12-08T16:04:36;12.50;;;3.97;;
422;SDS011;198;48.752;9.180;2022-12-08T16:07:03;7.73;;;4.20;;
422;SDS011;198;48.752;9.180;2022-12-08T16:09:36;8.47;;;3.70;;
422;SDS011;198;48.752;9.180;2022-12-08T16:12:04;9.67;;;3.77;;
422;SDS011;198;48.752;9.180;2022-12-08T16:14:56;6.60;;;3.00;;
422;SDS011;198;48.752;9.180;2022-12-08T16:17:21;9.63;;;4.03;;
422;SDS011;198;48.752;9.180;2022-12-08T16:19:47;7.30;;;3.10;;
422;SDS011;198;48.752;9.180;2022-12-08T16:22:17;23.73;;;5.47;;
422;SDS011;198;48.752;9.180;2022-12-08T16:24:44;9.00;;;3.80;;
422;SDS011;198;48.752;9.180;2022-12-08T16:27:19;9.77;;;4.80;;
422;SDS011;198;48.752;9.180;2022-12-08T16:29:45;5.97;;;3.40;;
422;SDS011;198;48.752;9.180;2022-12-08T16:32:12;8.90;;;3.67;;
422;SDS011;198;48.752;9.180;2022-12-08T16:34:38;9.20;;;5.00;;
422;SDS011;198;48.752;9.180;2022-12-08T16:37:04;8.53;;;4.67;;
422;SDS011;198;48.752;9.180;2022-12-08T16:39:29;8.57;;;3.90;;
422;SDS011;198;48.752;9.180;2022-12-08T16:41:55;9.53;;;4.63;;
422;SDS011;198;48.752;9.180;2022-12-08T16:44:40;14.50;;;4.70;;
422;SDS011;198;48.752;9.180;2022-12-08T16:47:09;10.53;;;5.03;;
422;SDS011;198;48.752;9.180;2022-12-08T16:49:38;9.50;;;3.97;;
422;SDS011;198;48.752;9.180;2022-12-08T16:52:04;6.60;;;3.33;;
422;SDS011;198;48.752;9.180;2022-12-08T16:54:30;7.47;;;3.70;;
422;SDS011;198;48.752;9.180;2022-12-08T16:56:56;7.83;;;3.57;;
422;SDS011;198;48.752;9.180;2022-12-08T16:59:22;8.30;;;4.10;;
422;SDS011;198;48.752;9.180;2022-12-08T17:01:47;15.60;;;4.53;;
422;SDS011;198;48.752;9.180;2022-12-08T17:04:13;4.83;;;3.30;;
422;SDS011;198;48.752;9.180;2022-12-08T17:06:38;9.80;;;4.80;;
422;SDS011;198;48.752;9.180;2022-12-08T17:09:04;9.47;;;4.30;;
422;SDS011;198;48.752;9.180;2022-12-08T17:11:29;9.37;;;4.30;;
422;SDS011;198;48.752;9.180;2022-12-08T17:13:56;11.53;;;4.50;;
422;SDS011;198;48.752;9.180;2022-12-08T17:16:23;14.33;;;4.60;;
422;SDS011;198;48.752;9.180;2022-12-08T17:18:50;8.87;;;4.10;;
422;SDS011;198;48.752;9.180;2022-12-08T17:21:17;6.70;;;4.23;;
422;SDS011;198;48.752;9.180;2022-12-08T17:23:44;10.00;;;4.60;;
422;SDS011;198;48.752;9.180;2022-12-08T17:26:10;11.23;;;5.30;;
422;SDS011;198;48.752;9.180;2022-12-08T17:28:36;10.63;;;3.90;;
422;SDS011;198;48.752;9.180;2022-12-08T17:31:07;15.47;;;5.40;;
422;SDS011;198;48.752;9.180;2022-12-08T17:33:34;10.57;;;5.20;;
422;SDS011;198;48.752;9.180;2022-12-08T17:36:00;18.63;;;5.70;;
422;SDS011;198;48.752;9.180;2022-12-08T17:38:25;15.10;;;5.17;;
422;SDS011;198;48.752;9.180;2022-12-08T17:40:51;9.60;;;4.40;;
422;SDS011;198;48.752;9.180;2022-12-08T17:43:16;12.50;;;4.77;;
422;SDS011;198;48.752;9.180;2022-12-08T17:45:42;10.83;;;5.03;;